createdAt,value
2023-09-23T00:00:03.338Z,4.53
2023-09-23T00:04:58.529Z,4.80
2023-09-23T00:07:26.058Z,6.28
2023-09-23T00:09:54.984Z,6.13
2023-09-23T00:12:22.521Z,4.70
2023-09-23T00:14:49.996Z,10.38
2023-09-23T00:17:19.398Z,6.03
2023-09-23T00:19:47.559Z,6.97
2023-09-23T00:22:15.136Z,5.72
2023-09-23T00:24:42.611Z,4.68
2023-09-23T00:27:10.778Z,4.95
2023-09-23T00:29:39.155Z,4.57
2023-09-23T00:32:06.715Z,5.20
2023-09-23T00:34:38.856Z,5.10
2023-09-23T00:37:08.418Z,4.03
2023-09-23T00:39:42.858Z,7.13
2023-09-23T00:42:11.369Z,7.43
2023-09-23T00:44:42.627Z,5.57
2023-09-23T00:47:15.019Z,6.40
2023-09-23T00:49:46.414Z,6.03
2023-09-23T00:52:16.009Z,5.13
2023-09-23T00:54:47.218Z,11.23
2023-09-23T00:57:15.377Z,5.15
2023-09-23T00:59:44.294Z,5.32
2023-09-23T01:02:14.057Z,7.22
2023-09-23T01:04:41.599Z,7.25
2023-09-23T01:07:10.705Z,4.13
2023-09-23T01:09:38.784Z,3.95
2023-09-23T01:12:09.277Z,6.32
2023-09-23T01:14:36.831Z,5.50
2023-09-23T01:17:11.344Z,5.25
2023-09-23T01:19:38.930Z,4.38
2023-09-23T01:22:07.118Z,3.97
2023-09-23T01:24:36.011Z,5.78
2023-09-23T01:27:05.029Z,3.05
2023-09-23T01:29:34.133Z,7.82
2023-09-23T01:32:29.803Z,5.38
2023-09-23T01:34:57.427Z,3.80
2023-09-23T01:37:24.922Z,7.60
2023-09-23T01:39:53.767Z,6.55
2023-09-23T01:42:22.096Z,3.60
2023-09-23T01:44:49.995Z,4.93
2023-09-23T01:47:18.432Z,8.10
2023-09-23T01:49:46.049Z,3.40
2023-09-23T01:52:16.421Z,3.08
2023-09-23T01:54:45.317Z,7.40
2023-09-23T01:57:18.018Z,4.93
2023-09-23T01:59:45.810Z,6.72
2023-09-23T02:02:13.804Z,9.02
2023-09-23T02:04:41.494Z,7.10
2023-09-23T02:07:11.477Z,3.85
2023-09-23T02:09:39.207Z,4.63
2023-09-23T02:12:07.331Z,4.82
2023-09-23T02:14:36.157Z,3.88
2023-09-23T02:17:03.797Z,6.95
2023-09-23T02:19:31.354Z,2.70
2023-09-23T02:21:58.859Z,3.30
2023-09-23T02:24:26.478Z,3.97
2023-09-23T02:26:53.998Z,3.72
2023-09-23T02:29:23.273Z,4.38
2023-09-23T02:31:52.214Z,2.45
2023-09-23T02:34:21.356Z,3.05
2023-09-23T02:36:52.014Z,4.25
2023-09-23T02:39:21.442Z,4.30
2023-09-23T02:41:49.313Z,4.45
2023-09-23T02:44:20.218Z,2.33
2023-09-23T02:46:47.987Z,3.67
2023-09-23T02:49:17.524Z,2.72
2023-09-23T02:51:45.958Z,2.88
2023-09-23T02:54:18.965Z,4.72
2023-09-23T02:56:47.845Z,3.42
2023-09-23T02:59:16.818Z,2.22
2023-09-23T03:01:47.773Z,4.38
2023-09-23T03:04:19.681Z,2.50
2023-09-23T03:09:21.714Z,2.97
2023-09-23T03:11:54.782Z,2.72
2023-09-23T03:14:24.295Z,2.00
2023-09-23T03:16:54.754Z,2.22
2023-09-23T03:19:26.206Z,3.45
2023-09-23T03:21:57.244Z,2.78
2023-09-23T03:24:27.237Z,3.30
2023-09-23T03:26:55.468Z,1.92
2023-09-23T03:29:23.737Z,3.67
2023-09-23T03:31:52.289Z,3.30
2023-09-23T03:34:20.034Z,4.03
2023-09-23T03:36:59.541Z,2.95
2023-09-23T03:39:38.546Z,4.00
2023-09-23T03:42:06.057Z,2.20
2023-09-23T03:44:36.743Z,2.90
2023-09-23T03:47:04.332Z,2.65
2023-09-23T03:49:32.308Z,3.05
2023-09-23T03:52:01.180Z,7.53
2023-09-23T03:54:29.531Z,3.97
2023-09-23T03:56:57.377Z,2.92
2023-09-23T03:59:24.981Z,1.90
2023-09-23T04:01:52.729Z,3.70
2023-09-23T04:04:20.318Z,2.60
2023-09-23T04:06:47.952Z,2.38
2023-09-23T04:09:17.514Z,3.28
2023-09-23T04:11:46.216Z,2.63
2023-09-23T04:14:13.755Z,3.90
2023-09-23T04:16:41.270Z,1.55
2023-09-23T04:19:09.064Z,2.72
2023-09-23T04:21:36.566Z,4.88
2023-09-23T04:24:04.731Z,2.08
2023-09-23T04:26:33.671Z,3.55
2023-09-23T04:29:01.260Z,3.13
2023-09-23T04:31:29.489Z,3.20
2023-09-23T04:33:57.021Z,4.30
2023-09-23T04:36:24.598Z,3.13
2023-09-23T04:38:52.224Z,6.05
2023-09-23T04:41:19.764Z,4.05
2023-09-23T04:43:49.153Z,3.80
2023-09-23T04:46:18.256Z,3.65
2023-09-23T04:48:46.231Z,3.88
2023-09-23T04:51:13.837Z,4.43
2023-09-23T04:53:41.345Z,2.75
2023-09-23T04:56:10.046Z,2.08
2023-09-23T04:58:37.666Z,6.65
2023-09-23T05:01:09.195Z,2.60
2023-09-23T05:03:38.007Z,2.97
2023-09-23T05:06:06.763Z,2.17
2023-09-23T05:08:34.342Z,4.55
2023-09-23T05:11:02.261Z,2.70
2023-09-23T05:13:30.681Z,2.95
2023-09-23T05:15:58.315Z,3.47
2023-09-23T05:18:27.204Z,2.90
2023-09-23T05:20:54.730Z,5.55
2023-09-23T05:23:24.374Z,2.83
2023-09-23T05:25:52.030Z,2.70
2023-09-23T05:28:19.707Z,3.70
2023-09-23T05:30:47.889Z,3.17
2023-09-23T05:33:15.649Z,1.63
2023-09-23T05:35:44.570Z,2.00
2023-09-23T05:38:13.131Z,2.22
2023-09-23T05:40:41.819Z,1.17
2023-09-23T05:43:10.474Z,1.63
2023-09-23T05:45:38.361Z,4.47
2023-09-23T05:48:06.844Z,2.15
2023-09-23T05:50:34.468Z,1.05
2023-09-23T05:53:03.311Z,4.20
2023-09-23T05:55:32.228Z,2.28
2023-09-23T05:57:59.705Z,1.80
2023-09-23T06:00:27.899Z,2.63
2023-09-23T06:02:55.542Z,2.92
2023-09-23T06:05:23.561Z,1.95
2023-09-23T06:07:53.997Z,2.90
2023-09-23T06:10:22.861Z,2.35
2023-09-23T06:12:50.346Z,1.65
2023-09-23T06:15:18.015Z,3.42
2023-09-23T06:17:45.637Z,2.70
2023-09-23T06:20:13.600Z,2.05
2023-09-23T06:22:41.444Z,3.25
2023-09-23T06:25:09.884Z,2.45
2023-09-23T06:27:38.783Z,4.25
2023-09-23T06:30:07.487Z,2.05
2023-09-23T06:32:35.145Z,4.22
2023-09-23T06:35:02.782Z,1.58
2023-09-23T06:37:30.374Z,1.23
2023-09-23T06:39:57.942Z,4.78
2023-09-23T06:42:25.416Z,1.95
2023-09-23T06:44:54.236Z,1.77
2023-09-23T06:47:22.294Z,1.10
2023-09-23T06:49:50.004Z,1.30
2023-09-23T06:52:17.524Z,2.05
2023-09-23T06:54:45.726Z,1.05
2023-09-23T06:57:14.631Z,1.05
2023-09-23T06:59:42.345Z,2.45
2023-09-23T07:02:11.308Z,2.17
2023-09-23T07:04:38.887Z,1.88
2023-09-23T07:07:06.557Z,4.18
2023-09-23T07:09:34.397Z,2.42
2023-09-23T07:12:01.902Z,1.30
2023-09-23T07:14:31.933Z,1.25
2023-09-23T07:16:59.833Z,2.33
2023-09-23T07:19:28.691Z,0.82
2023-09-23T07:21:56.264Z,2.47
2023-09-23T07:24:24.251Z,3.10
2023-09-23T07:26:51.753Z,6.43
2023-09-23T07:29:19.332Z,1.67
2023-09-23T07:31:46.849Z,1.63
2023-09-23T07:34:14.518Z,2.05
2023-09-23T07:36:44.089Z,2.17
2023-09-23T07:39:12.090Z,2.08
2023-09-23T07:41:39.561Z,2.53
2023-09-23T07:44:07.841Z,2.53
2023-09-23T07:46:35.667Z,0.93
2023-09-23T07:49:05.453Z,1.77
2023-09-23T07:51:33.198Z,2.88
2023-09-23T07:54:02.567Z,1.50
2023-09-23T07:56:30.105Z,2.03
2023-09-23T07:58:57.649Z,1.33
2023-09-23T08:01:25.199Z,1.65
2023-09-23T08:03:53.385Z,2.58
2023-09-23T08:06:20.864Z,4.30
2023-09-23T08:08:48.437Z,1.10
2023-09-23T08:11:17.236Z,1.30
2023-09-23T08:13:44.844Z,2.40
2023-09-23T08:16:12.518Z,0.60
2023-09-23T08:18:40.059Z,1.40
2023-09-23T08:21:07.909Z,1.52
2023-09-23T08:23:35.510Z,1.38
2023-09-23T08:26:03.070Z,1.63
2023-09-23T08:28:31.938Z,0.70
2023-09-23T08:30:59.452Z,2.28
2023-09-23T08:33:28.945Z,3.10
2023-09-23T08:35:56.555Z,3.28
2023-09-23T08:38:24.195Z,1.58
2023-09-23T08:40:52.770Z,1.20
2023-09-23T08:43:26.266Z,1.65
2023-09-23T08:45:55.720Z,0.90
2023-09-23T08:48:23.661Z,1.13
2023-09-23T08:50:54.590Z,6.50
2023-09-23T08:53:23.739Z,2.10
2023-09-23T08:55:54.102Z,1.23
2023-09-23T08:58:22.070Z,1.20
2023-09-23T09:00:50.855Z,3.35
2023-09-23T09:03:19.821Z,3.83
2023-09-23T09:05:48.154Z,4.28
2023-09-23T09:08:15.789Z,1.13
2023-09-23T09:10:43.319Z,0.90
2023-09-23T09:13:11.139Z,1.45
2023-09-23T09:15:39.521Z,1.67
2023-09-23T09:18:07.340Z,1.23
2023-09-23T09:20:37.569Z,2.15
2023-09-23T09:23:06.732Z,1.33
2023-09-23T09:25:34.376Z,0.98
2023-09-23T09:28:03.232Z,1.63
2023-09-23T09:30:30.941Z,1.00
2023-09-23T09:33:02.389Z,2.85
2023-09-23T09:35:30.294Z,0.80
2023-09-23T09:38:16.747Z,2.38
2023-09-23T09:40:46.658Z,1.00
2023-09-23T09:43:15.901Z,2.28
2023-09-23T09:45:45.694Z,1.45
2023-09-23T09:48:14.884Z,1.95
2023-09-23T09:50:42.805Z,1.98
2023-09-23T09:53:11.643Z,3.70
2023-09-23T09:55:39.377Z,1.02
2023-09-23T09:58:07.961Z,1.55
2023-09-23T10:00:43.338Z,1.70
2023-09-23T10:03:13.927Z,1.30
2023-09-23T10:05:47.435Z,1.30
2023-09-23T10:08:21.166Z,1.90
2023-09-23T10:10:50.214Z,1.17
2023-09-23T10:13:19.679Z,4.53
2023-09-23T10:15:47.418Z,1.50
2023-09-23T10:18:16.114Z,2.25
2023-09-23T10:20:46.491Z,1.63
2023-09-23T10:23:18.220Z,1.95
2023-09-23T10:28:24.465Z,1.27
2023-09-23T10:30:59.725Z,2.30
2023-09-23T10:33:27.619Z,2.13
2023-09-23T10:35:58.037Z,1.25
2023-09-23T10:38:29.135Z,3.13
2023-09-23T10:40:57.744Z,1.77
2023-09-23T10:43:25.654Z,1.95
2023-09-23T10:45:53.920Z,1.67
2023-09-23T10:48:21.566Z,1.27
2023-09-23T10:50:50.219Z,2.53
2023-09-23T10:53:18.301Z,1.17
2023-09-23T10:55:47.145Z,0.93
2023-09-23T10:58:14.722Z,1.92
2023-09-23T11:00:43.230Z,1.58
2023-09-23T11:03:12.304Z,3.42
2023-09-23T11:05:41.178Z,1.73
2023-09-23T11:08:11.514Z,1.35
2023-09-23T11:10:39.604Z,3.38
2023-09-23T11:13:09.334Z,2.03
2023-09-23T11:15:46.812Z,1.60
2023-09-23T11:18:17.027Z,1.13
2023-09-23T11:20:46.474Z,1.23
2023-09-23T11:23:14.470Z,1.77
2023-09-23T11:25:43.772Z,1.48
2023-09-23T11:28:19.323Z,2.92
2023-09-23T11:30:47.086Z,2.90
2023-09-23T11:33:15.120Z,1.42
2023-09-23T11:35:43.041Z,3.30
2023-09-23T11:38:10.834Z,2.05
2023-09-23T11:40:38.968Z,1.77
2023-09-23T11:43:07.188Z,0.85
2023-09-23T11:45:36.182Z,3.08
2023-09-23T11:48:07.309Z,3.70
2023-09-23T11:50:35.430Z,4.35
2023-09-23T11:53:03.694Z,2.75
2023-09-23T11:55:33.738Z,3.30
2023-09-23T11:58:01.559Z,2.40
2023-09-23T12:00:30.200Z,2.05
2023-09-23T12:02:59.516Z,1.17
2023-09-23T12:05:30.923Z,2.28
2023-09-23T12:10:28.182Z,1.63
2023-09-23T12:12:57.469Z,0.80
2023-09-23T12:15:25.183Z,4.97
2023-09-23T12:17:52.700Z,5.13
2023-09-23T12:20:23.547Z,1.30
2023-09-23T12:22:53.382Z,1.20
2023-09-23T12:25:21.621Z,1.55
2023-09-23T12:27:49.193Z,2.95
2023-09-23T12:30:18.695Z,0.85
2023-09-23T12:32:46.642Z,1.25
2023-09-23T12:35:14.564Z,1.85
2023-09-23T12:37:43.530Z,0.85
2023-09-23T12:40:12.069Z,2.60
2023-09-23T12:42:39.603Z,5.38
2023-09-23T12:45:08.477Z,6.32
2023-09-23T12:47:53.145Z,1.88
2023-09-23T12:50:23.490Z,3.88
2023-09-23T12:52:53.361Z,1.40
2023-09-23T12:55:20.961Z,0.95
2023-09-23T12:57:49.448Z,1.50
2023-09-23T13:00:17.214Z,1.75
2023-09-23T13:02:44.908Z,2.05
2023-09-23T13:05:12.753Z,1.73
2023-09-23T13:07:40.255Z,1.65
2023-09-23T13:10:14.306Z,2.58
2023-09-23T13:12:42.781Z,2.55
2023-09-23T13:15:10.707Z,1.30
2023-09-23T13:17:38.428Z,2.10
2023-09-23T13:20:07.357Z,1.65
2023-09-23T13:22:34.985Z,1.58
2023-09-23T13:25:03.197Z,2.53
2023-09-23T13:27:32.917Z,2.17
2023-09-23T13:30:00.424Z,2.03
2023-09-23T13:32:28.286Z,2.15
2023-09-23T13:34:55.797Z,1.98
2023-09-23T13:37:23.282Z,1.92
2023-09-23T13:39:50.912Z,2.28
2023-09-23T13:42:18.402Z,2.67
2023-09-23T13:44:50.999Z,2.42
2023-09-23T13:47:18.972Z,1.90
2023-09-23T13:49:55.760Z,5.07
2023-09-23T13:52:23.372Z,3.58
2023-09-23T13:54:50.868Z,2.38
2023-09-23T13:57:18.318Z,2.25
2023-09-23T13:59:47.168Z,0.93
2023-09-23T14:02:16.216Z,1.85
2023-09-23T14:04:44.629Z,3.90
2023-09-23T14:07:12.203Z,2.08
2023-09-23T14:09:39.743Z,3.85
2023-09-23T14:12:07.634Z,3.03
2023-09-23T14:14:35.237Z,2.10
2023-09-23T14:17:04.141Z,1.33
2023-09-23T14:19:33.109Z,2.88
2023-09-23T14:22:00.625Z,1.77
2023-09-23T14:24:29.226Z,2.30
2023-09-23T14:26:56.825Z,2.58
2023-09-23T14:29:25.045Z,2.33
2023-09-23T14:31:52.741Z,3.35
2023-09-23T14:34:21.612Z,2.63
2023-09-23T14:36:49.918Z,3.40
2023-09-23T14:39:17.469Z,3.28
2023-09-23T14:41:45.936Z,2.45
2023-09-23T14:44:13.605Z,1.35
2023-09-23T14:46:41.296Z,3.58
2023-09-23T14:49:08.976Z,2.65
2023-09-23T14:51:37.926Z,2.33
2023-09-23T14:54:06.292Z,2.55
2023-09-23T14:56:34.278Z,2.00
2023-09-23T14:59:01.913Z,2.13
2023-09-23T15:01:31.202Z,3.20
2023-09-23T15:03:59.909Z,1.75
2023-09-23T15:06:27.678Z,2.05
2023-09-23T15:09:00.824Z,2.25
2023-09-23T15:11:29.715Z,1.90
2023-09-23T15:13:58.363Z,2.83
2023-09-23T15:16:26.163Z,2.80
2023-09-23T15:18:53.743Z,2.95
2023-09-23T15:21:22.573Z,1.40
2023-09-23T15:23:50.125Z,5.93
2023-09-23T15:26:19.703Z,1.45
2023-09-23T15:28:47.490Z,2.28
2023-09-23T15:31:15.173Z,4.28
2023-09-23T15:33:43.639Z,1.75
2023-09-23T15:36:13.239Z,4.82
2023-09-23T15:38:41.007Z,2.08
2023-09-23T15:41:08.862Z,3.70
2023-09-23T15:43:38.577Z,3.55
2023-09-23T15:46:06.166Z,3.38
2023-09-23T15:48:33.908Z,1.77
2023-09-23T15:51:09.634Z,3.03
2023-09-23T15:53:37.494Z,3.35
2023-09-23T15:56:07.634Z,2.45
2023-09-23T15:58:35.360Z,2.78
2023-09-23T16:01:05.458Z,3.35
2023-09-23T16:03:33.436Z,3.22
2023-09-23T16:06:01.401Z,4.05
2023-09-23T16:08:28.990Z,3.88
2023-09-23T16:10:56.619Z,1.83
2023-09-23T16:13:24.180Z,3.30
2023-09-23T16:15:51.743Z,2.80
2023-09-23T16:18:23.170Z,2.63
2023-09-23T16:23:18.802Z,4.68
2023-09-23T16:25:46.323Z,3.50
2023-09-23T16:28:14.156Z,2.65
2023-09-23T16:30:43.023Z,3.67
2023-09-23T16:33:12.002Z,3.58
2023-09-23T16:35:40.973Z,2.33
2023-09-23T16:38:08.539Z,4.00
2023-09-23T16:40:37.250Z,1.95
2023-09-23T16:43:05.066Z,3.00
2023-09-23T16:45:32.599Z,4.65
2023-09-23T16:48:00.182Z,2.92
2023-09-23T16:50:27.847Z,4.72
2023-09-23T16:52:56.743Z,2.92
2023-09-23T16:55:24.313Z,2.70
2023-09-23T16:57:51.853Z,4.43
2023-09-23T17:00:19.677Z,5.18
2023-09-23T17:02:48.045Z,5.65
2023-09-23T17:05:15.802Z,4.05
2023-09-23T17:07:43.296Z,3.33
2023-09-23T17:10:12.246Z,6.25
2023-09-23T17:12:39.813Z,4.00
2023-09-23T17:15:08.799Z,4.38
2023-09-23T17:17:36.556Z,3.72
2023-09-23T17:20:05.578Z,2.80
2023-09-23T17:22:33.057Z,2.38
2023-09-23T17:25:01.149Z,2.80
2023-09-23T17:27:30.767Z,3.60
2023-09-23T17:29:58.251Z,3.15
2023-09-23T17:32:25.893Z,3.88
2023-09-23T17:34:53.412Z,3.70
2023-09-23T17:37:21.193Z,2.95
2023-09-23T17:39:48.696Z,4.25
2023-09-23T17:42:16.289Z,3.25
2023-09-23T17:44:46.619Z,5.85
2023-09-23T17:47:14.900Z,3.95
2023-09-23T17:49:42.448Z,3.67
2023-09-23T17:52:10.163Z,4.47
2023-09-23T17:54:37.847Z,5.50
2023-09-23T17:57:05.329Z,3.92
2023-09-23T17:59:32.890Z,9.55
2023-09-23T18:02:02.243Z,4.78
2023-09-23T18:04:29.941Z,5.40
2023-09-23T18:06:57.487Z,5.80
2023-09-23T18:09:24.981Z,4.05
2023-09-23T18:11:53.318Z,4.38
2023-09-23T18:14:21.254Z,4.25
2023-09-23T18:16:48.779Z,5.38
2023-09-23T18:19:17.978Z,5.50
2023-09-23T18:21:45.777Z,4.50
2023-09-23T18:24:13.576Z,5.55
2023-09-23T18:26:41.339Z,3.30
2023-09-23T18:29:08.837Z,4.38
2023-09-23T18:31:36.339Z,6.13
2023-09-23T18:34:04.472Z,4.60
2023-09-23T18:36:33.810Z,6.03
2023-09-23T18:39:01.230Z,6.47
2023-09-23T18:41:30.809Z,4.53
2023-09-23T18:43:58.348Z,5.60
2023-09-23T18:46:26.979Z,6.45
2023-09-23T18:48:54.554Z,5.82
2023-09-23T18:51:22.244Z,6.40
2023-09-23T18:53:52.447Z,5.10
2023-09-23T18:56:19.966Z,5.95
2023-09-23T18:58:49.034Z,7.05
2023-09-23T19:01:16.551Z,4.18
2023-09-23T19:03:44.395Z,7.38
2023-09-23T19:06:12.117Z,7.65
2023-09-23T19:08:39.714Z,6.88
2023-09-23T19:11:08.749Z,6.15
2023-09-23T19:13:37.258Z,7.32
2023-09-23T19:16:05.792Z,4.05
2023-09-23T19:18:33.514Z,7.57
2023-09-23T19:21:02.707Z,6.90
2023-09-23T19:23:30.271Z,10.60
2023-09-23T19:25:57.850Z,11.38
2023-09-23T19:28:26.900Z,8.98
2023-09-23T19:30:56.635Z,6.53
2023-09-23T19:33:24.465Z,7.05
2023-09-23T19:35:52.565Z,7.55
2023-09-23T19:38:20.259Z,6.78
2023-09-23T19:40:47.834Z,6.05
2023-09-23T19:43:15.465Z,6.47
2023-09-23T19:45:44.313Z,7.20
2023-09-23T19:48:12.219Z,6.32
2023-09-23T19:50:39.833Z,5.82
2023-09-23T19:53:07.332Z,9.95
2023-09-23T19:55:35.914Z,7.63
2023-09-23T19:58:04.158Z,6.63
2023-09-23T20:00:33.156Z,5.50
2023-09-23T20:03:07.158Z,4.82
2023-09-23T20:05:35.021Z,5.20
2023-09-23T20:08:02.904Z,4.05
2023-09-23T20:10:31.028Z,6.78
2023-09-23T20:12:58.781Z,7.00
2023-09-23T20:15:28.830Z,5.85
2023-09-23T20:17:57.756Z,6.72
2023-09-23T20:20:27.673Z,7.38
2023-09-23T20:22:55.585Z,6.05
2023-09-23T20:25:23.093Z,7.00
2023-09-23T20:27:50.643Z,4.85
2023-09-23T20:30:18.637Z,5.10
2023-09-23T20:32:46.292Z,7.72
2023-09-23T20:35:13.964Z,5.80
2023-09-23T20:37:43.881Z,4.25
2023-09-23T20:40:14.308Z,8.75
2023-09-23T20:42:43.049Z,4.80
2023-09-23T20:45:11.604Z,7.53
2023-09-23T20:47:41.003Z,7.90
2023-09-23T20:50:10.692Z,7.90
2023-09-23T20:52:39.583Z,6.22
2023-09-23T20:55:09.085Z,7.50
2023-09-23T20:57:36.658Z,8.45
2023-09-23T21:00:07.537Z,7.30
2023-09-23T21:02:35.252Z,7.88
2023-09-23T21:05:03.116Z,6.65
2023-09-23T21:07:30.644Z,5.85
2023-09-23T21:10:08.033Z,9.68
2023-09-23T21:12:36.886Z,5.45
2023-09-23T21:15:06.601Z,6.15
2023-09-23T21:17:35.926Z,4.93
2023-09-23T21:20:03.630Z,4.43
2023-09-23T21:22:31.122Z,5.60
2023-09-23T21:24:58.728Z,5.32
2023-09-23T21:27:26.197Z,6.93
2023-09-23T21:29:55.030Z,4.13
2023-09-23T21:32:22.613Z,4.13
2023-09-23T21:34:50.126Z,6.32
2023-09-23T21:37:18.121Z,5.40
2023-09-23T21:39:45.907Z,6.15
2023-09-23T21:42:13.841Z,7.45
2023-09-23T21:44:42.112Z,6.57
2023-09-23T21:47:16.442Z,3.85
2023-09-23T21:49:44.427Z,4.30
2023-09-23T21:52:12.078Z,6.30
2023-09-23T21:54:39.668Z,4.93
2023-09-23T21:57:08.183Z,3.83
2023-09-23T21:59:35.774Z,6.57
2023-09-23T22:02:03.502Z,5.85
2023-09-23T22:04:33.812Z,4.32
2023-09-23T22:07:01.401Z,3.55
2023-09-23T22:09:29.478Z,6.28
2023-09-23T22:11:57.896Z,7.00
2023-09-23T22:14:27.844Z,5.68
2023-09-23T22:16:56.006Z,4.50
2023-09-23T22:19:23.911Z,3.83
2023-09-23T22:21:53.405Z,5.88
2023-09-23T22:24:22.433Z,10.68
2023-09-23T22:26:54.038Z,4.35
2023-09-23T22:31:49.460Z,4.13
2023-09-23T22:34:16.916Z,6.30
2023-09-23T22:36:46.347Z,3.53
2023-09-23T22:39:15.522Z,6.38
2023-09-23T22:41:43.819Z,4.90
2023-09-23T22:44:11.358Z,5.80
2023-09-23T22:46:39.867Z,5.95
2023-09-23T22:49:07.828Z,9.63
2023-09-23T22:51:35.356Z,5.95
2023-09-23T22:54:02.944Z,5.80
2023-09-23T22:56:34.574Z,4.90
2023-09-23T22:59:03.254Z,5.72
2023-09-23T23:01:32.445Z,6.00
2023-09-23T23:04:01.458Z,5.43
2023-09-23T23:06:29.921Z,5.00
2023-09-23T23:08:57.701Z,4.28
2023-09-23T23:11:25.653Z,4.05
2023-09-23T23:13:56.173Z,7.43
2023-09-23T23:16:23.799Z,6.05
2023-09-23T23:18:53.255Z,6.43
2023-09-23T23:21:20.851Z,5.90
2023-09-23T23:23:48.515Z,4.70
2023-09-23T23:26:16.313Z,7.43
2023-09-23T23:28:43.831Z,4.28
2023-09-23T23:31:13.509Z,8.82
2023-09-23T23:33:41.161Z,5.97
2023-09-23T23:36:08.867Z,6.45
2023-09-23T23:38:36.390Z,5.03
2023-09-23T23:41:03.864Z,6.50
2023-09-23T23:43:31.626Z,5.03
2023-09-23T23:45:59.814Z,4.53
2023-09-23T23:48:29.983Z,6.10
2023-09-23T23:51:05.441Z,5.18
2023-09-23T23:53:33.654Z,4.30
2023-09-23T23:56:01.769Z,4.82
2023-09-23T23:58:29.363Z,4.07
